createdAt,value
2023-03-23T15:58:25.337Z,3.00
2023-03-23T16:00:59.800Z,3.00
2023-03-23T16:03:34.921Z,3.20
2023-03-23T16:06:05.462Z,3.20
2023-03-23T16:08:41.374Z,3.30
2023-03-23T16:11:24.986Z,3.30
2023-03-23T16:13:55.421Z,3.30
2023-03-23T16:16:30.451Z,3.20
2023-03-23T16:19:00.612Z,3.10
2023-03-23T16:21:31.373Z,3.10
2023-03-23T16:24:01.952Z,2.90
2023-03-23T16:26:32.176Z,2.80
2023-03-23T16:29:12.992Z,2.60
2023-03-23T16:31:58.365Z,2.50
2023-03-23T16:34:30.618Z,2.40
2023-03-23T16:37:01.141Z,2.30
2023-03-23T16:39:31.728Z,2.40
2023-03-23T16:42:02.365Z,2.50
2023-03-23T16:44:33.071Z,2.50
2023-03-23T16:47:05.892Z,2.60
2023-03-23T16:49:36.292Z,2.70
2023-03-23T16:52:15.064Z,2.80
2023-03-23T16:54:48.885Z,2.90
2023-03-23T16:57:19.246Z,2.90
2023-03-23T16:59:49.547Z,2.70
2023-03-23T17:02:21.384Z,2.70
2023-03-23T17:04:51.895Z,2.70
2023-03-23T17:07:22.283Z,2.70
2023-03-23T17:09:52.806Z,2.70
2023-03-23T17:12:23.725Z,2.80
2023-03-23T17:14:54.321Z,2.80
2023-03-23T17:17:26.396Z,2.80
2023-03-23T17:19:56.979Z,2.80
2023-03-23T17:22:27.489Z,2.90
2023-03-23T17:27:56.963Z,3.20
2023-03-23T17:30:41.309Z,3.40
2023-03-23T17:33:13.611Z,3.50
2023-03-23T17:35:44.914Z,3.50
2023-03-23T17:38:15.285Z,3.70
2023-03-23T17:40:46.043Z,3.70
2023-03-23T17:43:16.452Z,3.70
2023-03-23T17:45:47.269Z,3.70
2023-03-23T17:48:19.437Z,3.70
2023-03-23T17:50:50.660Z,3.60
2023-03-23T17:53:20.985Z,3.50
2023-03-23T17:55:51.290Z,3.60
2023-03-23T17:58:21.759Z,3.50
2023-03-23T18:00:52.346Z,3.50
2023-03-23T18:03:25.340Z,3.50
2023-03-23T18:06:01.566Z,3.70
2023-03-23T18:08:32.597Z,3.70
2023-03-23T18:11:03.216Z,3.70
2023-03-23T18:13:36.554Z,3.80
2023-03-23T18:16:07.794Z,3.80
2023-03-23T18:18:40.074Z,3.90
2023-03-23T18:21:12.344Z,4.00
2023-03-23T18:23:49.662Z,4.00
2023-03-23T18:26:29.068Z,3.90
2023-03-23T18:28:59.400Z,3.80
2023-03-23T18:31:30.095Z,3.70
2023-03-23T18:34:02.381Z,3.70
2023-03-23T18:36:32.733Z,3.50
2023-03-23T18:39:02.994Z,3.40
2023-03-23T18:41:33.351Z,3.30
2023-03-23T18:44:03.695Z,3.20
2023-03-23T18:46:33.997Z,3.20
2023-03-23T18:49:06.006Z,3.20
2023-03-23T18:51:38.251Z,3.40
2023-03-23T18:54:08.849Z,3.70
2023-03-23T18:56:39.446Z,3.90
2023-03-23T18:59:09.679Z,4.00
2023-03-23T19:01:40.563Z,4.20
2023-03-23T19:04:14.106Z,4.10
2023-03-23T19:06:44.253Z,4.10
2023-03-23T19:09:14.990Z,4.30
2023-03-23T19:11:46.518Z,4.40
2023-03-23T19:14:18.590Z,4.20
2023-03-23T19:16:49.998Z,3.90
2023-03-23T19:19:25.428Z,3.80
2023-03-23T19:21:56.572Z,3.60
2023-03-23T19:24:27.165Z,3.60
2023-03-23T19:26:57.494Z,3.70
2023-03-23T19:29:29.498Z,3.70
2023-03-23T19:32:00.534Z,3.70
2023-03-23T19:34:33.360Z,3.70
2023-03-23T19:37:06.238Z,3.70
2023-03-23T19:39:42.945Z,3.80
2023-03-23T19:42:17.510Z,3.80
2023-03-23T19:44:47.692Z,3.80
2023-03-23T19:47:18.023Z,3.80
2023-03-23T19:49:50.857Z,3.80
2023-03-23T19:52:22.644Z,3.80
2023-03-23T19:54:53.310Z,3.90
2023-03-23T19:57:23.713Z,3.80
2023-03-23T19:59:53.911Z,3.60
2023-03-23T20:02:24.142Z,3.40
2023-03-23T20:04:57.186Z,3.20
2023-03-23T20:07:28.690Z,3.20
2023-03-23T20:09:59.509Z,3.20
2023-03-23T20:12:31.056Z,3.30
2023-03-23T20:15:02.079Z,3.40
2023-03-23T20:17:32.480Z,3.60
2023-03-23T20:20:06.404Z,4.00
2023-03-23T20:22:36.614Z,4.20
2023-03-23T20:25:08.747Z,4.40
2023-03-23T20:27:40.483Z,4.30
2023-03-23T20:30:11.916Z,4.10
2023-03-23T20:32:42.811Z,4.00
2023-03-23T20:35:15.339Z,3.90
2023-03-23T20:37:45.748Z,3.80
2023-03-23T20:40:17.228Z,3.80
2023-03-23T20:42:48.113Z,3.70
2023-03-23T20:45:20.877Z,3.70
2023-03-23T20:47:51.132Z,3.70
2023-03-23T20:50:23.162Z,3.70
2023-03-23T20:52:53.453Z,3.60
2023-03-23T20:55:24.373Z,3.50
2023-03-23T20:57:55.078Z,3.60
2023-03-23T21:00:25.559Z,3.70
2023-03-23T21:02:56.651Z,3.80
2023-03-23T21:05:29.777Z,3.90
2023-03-23T21:08:00.118Z,4.00
2023-03-23T21:10:30.825Z,4.10
2023-03-23T21:13:01.014Z,4.20
2023-03-23T21:15:32.079Z,4.30
2023-03-23T21:18:02.309Z,4.50
2023-03-23T21:20:34.299Z,4.60
2023-03-23T21:23:06.401Z,4.70
2023-03-23T21:25:37.614Z,4.80
2023-03-23T21:28:09.493Z,4.90
2023-03-23T21:30:42.516Z,4.90
2023-03-23T21:33:12.643Z,4.80
2023-03-23T21:35:44.990Z,4.80
2023-03-23T21:38:16.533Z,4.60
2023-03-23T21:40:47.354Z,4.50
2023-03-23T21:43:17.734Z,4.50
2023-03-23T21:45:48.840Z,4.40
2023-03-23T21:48:19.222Z,4.30
2023-03-23T21:50:51.110Z,4.20
2023-03-23T21:53:24.708Z,4.10
2023-03-23T21:55:55.370Z,4.10
2023-03-23T21:58:28.276Z,4.00
2023-03-23T22:01:01.681Z,4.00
2023-03-23T22:03:35.341Z,3.90
2023-03-23T22:06:13.085Z,3.80
2023-03-23T22:08:45.068Z,3.80
2023-03-23T22:11:17.166Z,3.80
2023-03-23T22:13:47.456Z,3.70
2023-03-23T22:16:20.005Z,3.60
2023-03-23T22:18:51.910Z,3.50
2023-03-23T22:21:26.558Z,3.40
2023-03-23T22:23:58.241Z,3.30
2023-03-23T22:26:30.952Z,3.30
2023-03-23T22:29:03.086Z,3.20
2023-03-23T22:31:37.537Z,3.10
2023-03-23T22:34:08.489Z,3.20
2023-03-23T22:36:41.448Z,3.20
2023-03-23T22:39:12.420Z,3.20
2023-03-23T22:41:46.007Z,3.30
2023-03-23T22:44:20.228Z,3.30
2023-03-23T22:46:50.564Z,3.40
2023-03-23T22:49:21.188Z,3.40
2023-03-23T22:51:54.261Z,3.30
2023-03-23T22:54:24.713Z,3.40
2023-03-23T22:56:55.478Z,3.40
2023-03-23T22:59:26.693Z,3.40
2023-03-23T23:01:56.951Z,3.20
2023-03-23T23:04:27.299Z,3.10
2023-03-23T23:07:10.456Z,3.00
2023-03-23T23:09:43.595Z,3.00
2023-03-23T23:12:16.115Z,2.90
2023-03-23T23:14:46.873Z,2.80
2023-03-23T23:17:17.322Z,2.70
2023-03-23T23:19:47.579Z,2.60
2023-03-23T23:22:19.689Z,2.50
2023-03-23T23:24:50.645Z,2.40
2023-03-23T23:27:21.230Z,2.40
2023-03-23T23:29:51.863Z,2.30
2023-03-23T23:32:22.280Z,2.20
2023-03-23T23:34:55.931Z,2.30
2023-03-23T23:37:28.260Z,2.20
2023-03-23T23:39:58.522Z,2.10
2023-03-23T23:42:29.372Z,2.00
2023-03-23T23:44:59.761Z,1.90
2023-03-23T23:47:30.527Z,1.90
2023-03-23T23:50:01.194Z,1.90
2023-03-23T23:52:34.323Z,1.90
2023-03-23T23:55:04.622Z,1.90
2023-03-23T23:57:35.176Z,1.90
